sensor_id;sensor_type;location;lat;lon;timestamp;temperature;humidity
75838;SHT30;64480;52.040;113.502;2023-05-20T00:01:19;27.57;22.87
75838;SHT30;64480;52.040;113.502;2023-05-20T00:04:23;27.81;22.88
75838;SHT30;64480;52.040;113.502;2023-05-20T00:07:27;28.10;22.04
75838;SHT30;64480;52.040;113.502;2023-05-20T00:10:30;28.06;22.18
75838;SHT30;64480;52.040;113.502;2023-05-20T00:13:47;28.56;21.71
75838;SHT30;64480;52.040;113.502;2023-05-20T00:16:51;28.50;21.77
75838;SHT30;64480;52.040;113.502;2023-05-20T00:19:55;29.15;21.64
75838;SHT30;64480;52.040;113.502;2023-05-20T00:22:58;29.15;21.02
75838;SHT30;64480;52.040;113.502;2023-05-20T00:26:03;29.25;21.27
75838;SHT30;64480;52.040;113.502;2023-05-20T00:29:07;29.37;20.79
75838;SHT30;64480;52.040;113.502;2023-05-20T00:32:10;28.50;20.94
75838;SHT30;64480;52.040;113.502;2023-05-20T00:35:14;27.26;22.28
75838;SHT30;64480;52.040;113.502;2023-05-20T00:38:18;26.29;22.86
75838;SHT30;64480;52.040;113.502;2023-05-20T00:41:22;25.43;23.88
75838;SHT30;64480;52.040;113.502;2023-05-20T00:44:26;25.03;24.51
75838;SHT30;64480;52.040;113.502;2023-05-20T00:47:33;23.82;24.70
75838;SHT30;64480;52.040;113.502;2023-05-20T00:50:39;23.06;26.85
75838;SHT30;64480;52.040;113.502;2023-05-20T00:53:43;22.45;25.28
75838;SHT30;64480;52.040;113.502;2023-05-20T00:56:47;21.99;24.70
75838;SHT30;64480;52.040;113.502;2023-05-20T00:59:50;21.55;25.15
75838;SHT30;64480;52.040;113.502;2023-05-20T01:02:54;21.27;24.38
75838;SHT30;64480;52.040;113.502;2023-05-20T01:05:59;20.90;24.91
75838;SHT30;64480;52.040;113.502;2023-05-20T01:09:03;20.57;25.54
75838;SHT30;64480;52.040;113.502;2023-05-20T01:12:19;20.28;25.37
75838;SHT30;64480;52.040;113.502;2023-05-20T01:15:24;20.18;26.15
75838;SHT30;64480;52.040;113.502;2023-05-20T01:18:30;19.90;25.41
75838;SHT30;64480;52.040;113.502;2023-05-20T01:21:35;19.86;26.41
75838;SHT30;64480;52.040;113.502;2023-05-20T01:24:46;19.82;26.08
75838;SHT30;64480;52.040;113.502;2023-05-20T01:27:56;19.84;26.02
75838;SHT30;64480;52.040;113.502;2023-05-20T01:31:02;19.96;26.28
75838;SHT30;64480;52.040;113.502;2023-05-20T01:34:07;20.17;26.31
75838;SHT30;64480;52.040;113.502;2023-05-20T01:37:12;20.22;25.45
75838;SHT30;64480;52.040;113.502;2023-05-20T01:40:17;20.17;25.74
75838;SHT30;64480;52.040;113.502;2023-05-20T01:43:23;19.97;25.21
75838;SHT30;64480;52.040;113.502;2023-05-20T01:46:32;19.77;26.03
75838;SHT30;64480;52.040;113.502;2023-05-20T01:49:36;19.98;25.76
75838;SHT30;64480;52.040;113.502;2023-05-20T01:52:40;19.67;26.19
75838;SHT30;64480;52.040;113.502;2023-05-20T01:55:43;19.67;26.18
75838;SHT30;64480;52.040;113.502;2023-05-20T01:58:47;19.66;26.35
75838;SHT30;64480;52.040;113.502;2023-05-20T02:01:51;20.03;26.34
75838;SHT30;64480;52.040;113.502;2023-05-20T02:04:56;20.34;26.02
75838;SHT30;64480;52.040;113.502;2023-05-20T02:08:00;20.48;25.85
75838;SHT30;64480;52.040;113.502;2023-05-20T02:11:03;20.55;25.79
75838;SHT30;64480;52.040;113.502;2023-05-20T02:14:07;20.37;25.56
75838;SHT30;64480;52.040;113.502;2023-05-20T02:17:10;20.34;25.14
75838;SHT30;64480;52.040;113.502;2023-05-20T02:20:18;20.62;24.11
75838;SHT30;64480;52.040;113.502;2023-05-20T02:23:35;20.72;23.70
75838;SHT30;64480;52.040;113.502;2023-05-20T02:26:39;20.94;24.82
75838;SHT30;64480;52.040;113.502;2023-05-20T02:29:42;21.06;24.94
75838;SHT30;64480;52.040;113.502;2023-05-20T02:32:46;20.90;24.91
75838;SHT30;64480;52.040;113.502;2023-05-20T02:35:50;20.69;25.03
75838;SHT30;64480;52.040;113.502;2023-05-20T02:38:54;20.63;25.37
75838;SHT30;64480;52.040;113.502;2023-05-20T02:41:58;21.00;25.75
75838;SHT30;64480;52.040;113.502;2023-05-20T02:45:02;21.38;23.75
75838;SHT30;64480;52.040;113.502;2023-05-20T02:48:07;21.62;24.39
75838;SHT30;64480;52.040;113.502;2023-05-20T02:51:12;21.71;24.14
75838;SHT30;64480;52.040;113.502;2023-05-20T02:54:15;21.28;23.89
75838;SHT30;64480;52.040;113.502;2023-05-20T02:57:19;21.01;24.04
75838;SHT30;64480;52.040;113.502;2023-05-20T03:00:23;20.80;24.17
75838;SHT30;64480;52.040;113.502;2023-05-20T03:03:27;20.63;23.82
75838;SHT30;64480;52.040;113.502;2023-05-20T03:06:31;20.89;24.27
75838;SHT30;64480;52.040;113.502;2023-05-20T03:09:35;21.06;23.65
75838;SHT30;64480;52.040;113.502;2023-05-20T03:12:39;21.08;23.94
75838;SHT30;64480;52.040;113.502;2023-05-20T03:15:46;21.07;23.95
75838;SHT30;64480;52.040;113.502;2023-05-20T03:18:51;20.91;23.87
75838;SHT30;64480;52.040;113.502;2023-05-20T03:21:57;20.80;23.78
75838;SHT30;64480;52.040;113.502;2023-05-20T03:25:15;20.62;23.95
75838;SHT30;64480;52.040;113.502;2023-05-20T03:28:19;20.62;24.08
75838;SHT30;64480;52.040;113.502;2023-05-20T03:31:24;20.61;23.82
75838;SHT30;64480;52.040;113.502;2023-05-20T03:34:28;20.76;23.56
75838;SHT30;64480;52.040;113.502;2023-05-20T03:37:33;20.97;23.06
75838;SHT30;64480;52.040;113.502;2023-05-20T03:40:37;20.97;23.16
75838;SHT30;64480;52.040;113.502;2023-05-20T03:47:10;20.82;23.63
75838;SHT30;64480;52.040;113.502;2023-05-20T03:50:16;21.18;23.31
75838;SHT30;64480;52.040;113.502;2023-05-20T03:53:22;21.69;22.40
75838;SHT30;64480;52.040;113.502;2023-05-20T03:56:37;22.04;21.53
75838;SHT30;64480;52.040;113.502;2023-05-20T03:59:41;22.10;21.91
75838;SHT30;64480;52.040;113.502;2023-05-20T04:02:45;21.75;22.50
75838;SHT30;64480;52.040;113.502;2023-05-20T04:05:52;21.11;23.62
75838;SHT30;64480;52.040;113.502;2023-05-20T04:08:57;20.89;24.28
75838;SHT30;64480;52.040;113.502;2023-05-20T04:12:10;20.63;24.70
75838;SHT30;64480;52.040;113.502;2023-05-20T04:15:14;20.48;24.79
75838;SHT30;64480;52.040;113.502;2023-05-20T04:18:28;20.45;24.75
75838;SHT30;64480;52.040;113.502;2023-05-20T04:21:36;20.62;24.34
75838;SHT30;64480;52.040;113.502;2023-05-20T04:24:40;21.01;24.57
75838;SHT30;64480;52.040;113.502;2023-05-20T04:27:44;21.11;24.04
75838;SHT30;64480;52.040;113.502;2023-05-20T04:30:48;21.12;24.71
75838;SHT30;64480;52.040;113.502;2023-05-20T04:33:52;21.56;24.08
75838;SHT30;64480;52.040;113.502;2023-05-20T04:37:11;21.99;22.95
75838;SHT30;64480;52.040;113.502;2023-05-20T04:40:16;22.20;22.50
75838;SHT30;64480;52.040;113.502;2023-05-20T04:43:32;21.99;22.77
75838;SHT30;64480;52.040;113.502;2023-05-20T04:46:42;21.94;22.47
75838;SHT30;64480;52.040;113.502;2023-05-20T04:49:46;21.56;22.19
75838;SHT30;64480;52.040;113.502;2023-05-20T04:52:50;21.32;23.02
75838;SHT30;64480;52.040;113.502;2023-05-20T04:55:55;21.32;22.30
75838;SHT30;64480;52.040;113.502;2023-05-20T04:58:59;21.39;22.54
75838;SHT30;64480;52.040;113.502;2023-05-20T05:02:02;21.56;21.82
75838;SHT30;64480;52.040;113.502;2023-05-20T05:05:07;21.80;21.62
75838;SHT30;64480;52.040;113.502;2023-05-20T05:08:12;21.99;21.45
75838;SHT30;64480;52.040;113.502;2023-05-20T05:11:24;21.97;21.52
75838;SHT30;64480;52.040;113.502;2023-05-20T05:14:33;21.90;21.44
75838;SHT30;64480;52.040;113.502;2023-05-20T05:17:37;21.72;20.58
75838;SHT30;64480;52.040;113.502;2023-05-20T05:20:41;21.67;21.07
75838;SHT30;64480;52.040;113.502;2023-05-20T05:23:49;21.54;21.16
75838;SHT30;64480;52.040;113.502;2023-05-20T05:26:54;21.42;20.87
75838;SHT30;64480;52.040;113.502;2023-05-20T05:29:58;21.35;21.36
75838;SHT30;64480;52.040;113.502;2023-05-20T05:33:03;21.35;21.58
75838;SHT30;64480;52.040;113.502;2023-05-20T05:36:07;21.56;21.36
75838;SHT30;64480;52.040;113.502;2023-05-20T05:39:11;21.85;20.76
75838;SHT30;64480;52.040;113.502;2023-05-20T05:42:14;22.09;21.15
75838;SHT30;64480;52.040;113.502;2023-05-20T05:45:18;22.49;20.75
75838;SHT30;64480;52.040;113.502;2023-05-20T05:48:22;22.99;19.65
75838;SHT30;64480;52.040;113.502;2023-05-20T05:51:26;23.21;19.23
75838;SHT30;64480;52.040;113.502;2023-05-20T05:54:32;23.52;18.91
75838;SHT30;64480;52.040;113.502;2023-05-20T05:57:49;23.51;17.36
75838;SHT30;64480;52.040;113.502;2023-05-20T06:00:53;23.00;18.30
75838;SHT30;64480;52.040;113.502;2023-05-20T06:03:57;22.93;18.07
75838;SHT30;64480;52.040;113.502;2023-05-20T06:07:01;22.79;17.95
75838;SHT30;64480;52.040;113.502;2023-05-20T06:10:05;22.73;18.31
75838;SHT30;64480;52.040;113.502;2023-05-20T06:13:10;22.65;18.95
75838;SHT30;64480;52.040;113.502;2023-05-20T06:16:15;22.56;19.21
75838;SHT30;64480;52.040;113.502;2023-05-20T06:19:19;22.34;18.75
75838;SHT30;64480;52.040;113.502;2023-05-20T06:22:23;22.21;19.00
75838;SHT30;64480;52.040;113.502;2023-05-20T06:25:47;22.16;19.16
75838;SHT30;64480;52.040;113.502;2023-05-20T06:28:52;22.10;19.19
75838;SHT30;64480;52.040;113.502;2023-05-20T06:31:56;22.28;18.97
75838;SHT30;64480;52.040;113.502;2023-05-20T06:35:01;22.54;19.72
75838;SHT30;64480;52.040;113.502;2023-05-20T06:38:12;22.73;19.66
75838;SHT30;64480;52.040;113.502;2023-05-20T06:41:18;22.86;19.31
75838;SHT30;64480;52.040;113.502;2023-05-20T06:44:24;23.02;18.69
75838;SHT30;64480;52.040;113.502;2023-05-20T06:47:48;23.24;17.70
75838;SHT30;64480;52.040;113.502;2023-05-20T06:50:55;23.47;17.68
75838;SHT30;64480;52.040;113.502;2023-05-20T06:54:01;23.40;17.92
75838;SHT30;64480;52.040;113.502;2023-05-20T06:57:07;23.44;18.18
75838;SHT30;64480;52.040;113.502;2023-05-20T07:00:16;23.13;18.60
75838;SHT30;64480;52.040;113.502;2023-05-20T07:03:24;22.99;19.20
75838;SHT30;64480;52.040;113.502;2023-05-20T07:06:31;23.14;19.03
75838;SHT30;64480;52.040;113.502;2023-05-20T07:09:36;23.27;19.04
75838;SHT30;64480;52.040;113.502;2023-05-20T07:12:45;23.33;18.49
75838;SHT30;64480;52.040;113.502;2023-05-20T07:15:55;23.10;18.61
75838;SHT30;64480;52.040;113.502;2023-05-20T07:19:00;22.86;18.68
75838;SHT30;64480;52.040;113.502;2023-05-20T07:22:21;22.59;19.39
75838;SHT30;64480;52.040;113.502;2023-05-20T07:25:32;22.52;19.50
75838;SHT30;64480;52.040;113.502;2023-05-20T07:28:38;22.52;19.63
75838;SHT30;64480;52.040;113.502;2023-05-20T07:31:42;22.40;19.72
75838;SHT30;64480;52.040;113.502;2023-05-20T07:34:46;22.47;20.14
75838;SHT30;64480;52.040;113.502;2023-05-20T07:37:50;22.62;19.90
75838;SHT30;64480;52.040;113.502;2023-05-20T07:40:56;22.59;19.60
75838;SHT30;64480;52.040;113.502;2023-05-20T07:44:01;22.75;19.61
75838;SHT30;64480;52.040;113.502;2023-05-20T07:47:17;22.86;19.42
75838;SHT30;64480;52.040;113.502;2023-05-20T07:50:22;22.90;20.17
75838;SHT30;64480;52.040;113.502;2023-05-20T07:53:31;22.96;19.35
75838;SHT30;64480;52.040;113.502;2023-05-20T07:56:37;23.11;18.93
75838;SHT30;64480;52.040;113.502;2023-05-20T07:59:45;23.17;19.09
75838;SHT30;64480;52.040;113.502;2023-05-20T08:02:52;23.27;18.75
75838;SHT30;64480;52.040;113.502;2023-05-20T08:06:20;23.33;18.54
75838;SHT30;64480;52.040;113.502;2023-05-20T08:09:35;23.48;18.47
75838;SHT30;64480;52.040;113.502;2023-05-20T08:12:45;23.61;18.59
75838;SHT30;64480;52.040;113.502;2023-05-20T08:15:52;23.59;18.78
75838;SHT30;64480;52.040;113.502;2023-05-20T08:18:59;23.20;19.58
75838;SHT30;64480;52.040;113.502;2023-05-20T08:22:04;22.88;20.17
75838;SHT30;64480;52.040;113.502;2023-05-20T08:25:10;22.65;19.84
75838;SHT30;64480;52.040;113.502;2023-05-20T08:28:14;22.49;20.08
75838;SHT30;64480;52.040;113.502;2023-05-20T08:31:21;22.56;19.45
75838;SHT30;64480;52.040;113.502;2023-05-20T08:34:25;22.65;19.52
75838;SHT30;64480;52.040;113.502;2023-05-20T08:37:30;22.77;19.30
75838;SHT30;64480;52.040;113.502;2023-05-20T08:40:39;22.86;19.87
75838;SHT30;64480;52.040;113.502;2023-05-20T08:43:43;22.77;18.48
75838;SHT30;64480;52.040;113.502;2023-05-20T08:46:48;22.98;18.90
75838;SHT30;64480;52.040;113.502;2023-05-20T08:49:53;23.16;18.73
75838;SHT30;64480;52.040;113.502;2023-05-20T08:52:57;23.16;18.47
75838;SHT30;64480;52.040;113.502;2023-05-20T08:56:01;22.90;19.20
75838;SHT30;64480;52.040;113.502;2023-05-20T08:59:05;22.73;19.17
75838;SHT30;64480;52.040;113.502;2023-05-20T09:02:09;22.47;19.14
75838;SHT30;64480;52.040;113.502;2023-05-20T09:05:13;22.30;19.60
75838;SHT30;64480;52.040;113.502;2023-05-20T09:08:18;22.37;19.86
75838;SHT30;64480;52.040;113.502;2023-05-20T09:11:25;22.44;19.35
75838;SHT30;64480;52.040;113.502;2023-05-20T09:14:39;22.48;18.76
75838;SHT30;64480;52.040;113.502;2023-05-20T09:17:54;22.69;18.51
75838;SHT30;64480;52.040;113.502;2023-05-20T09:21:05;23.00;19.15
75838;SHT30;64480;52.040;113.502;2023-05-20T09:24:25;23.21;18.26
75838;SHT30;64480;52.040;113.502;2023-05-20T09:27:29;23.13;18.60
75838;SHT30;64480;52.040;113.502;2023-05-20T09:30:34;23.23;18.65
75838;SHT30;64480;52.040;113.502;2023-05-20T09:33:38;23.20;18.26
75838;SHT30;64480;52.040;113.502;2023-05-20T09:36:43;23.10;18.05
75838;SHT30;64480;52.040;113.502;2023-05-20T09:39:55;23.02;17.90
75838;SHT30;64480;52.040;113.502;2023-05-20T09:43:04;22.95;18.56
75838;SHT30;64480;52.040;113.502;2023-05-20T09:46:11;23.06;17.94
75838;SHT30;64480;52.040;113.502;2023-05-20T09:49:16;23.11;17.23
75838;SHT30;64480;52.040;113.502;2023-05-20T09:52:20;23.14;16.65
75838;SHT30;64480;52.040;113.502;2023-05-20T09:55:24;23.06;16.42
75838;SHT30;64480;52.040;113.502;2023-05-20T09:58:28;23.06;16.39
75838;SHT30;64480;52.040;113.502;2023-05-20T10:01:33;23.18;16.11
75838;SHT30;64480;52.040;113.502;2023-05-20T10:04:43;23.16;15.82
75838;SHT30;64480;52.040;113.502;2023-05-20T10:11:44;22.95;15.79
75838;SHT30;64480;52.040;113.502;2023-05-20T10:21:42;22.75;14.36
75838;SHT30;64480;52.040;113.502;2023-05-20T10:24:57;22.69;14.11
75838;SHT30;64480;52.040;113.502;2023-05-20T10:28:07;22.61;13.77
75838;SHT30;64480;52.040;113.502;2023-05-20T10:31:21;22.49;13.67
75838;SHT30;64480;52.040;113.502;2023-05-20T10:34:25;22.48;13.59
75838;SHT30;64480;52.040;113.502;2023-05-20T10:37:40;22.41;13.17
75838;SHT30;64480;52.040;113.502;2023-05-20T10:40:44;22.33;13.18
75838;SHT30;64480;52.040;113.502;2023-05-20T10:44:02;22.24;13.42
75838;SHT30;64480;52.040;113.502;2023-05-20T10:47:18;22.13;13.81
75838;SHT30;64480;52.040;113.502;2023-05-20T10:50:36;21.99;13.44
75838;SHT30;64480;52.040;113.502;2023-05-20T10:53:45;21.83;13.90
75838;SHT30;64480;52.040;113.502;2023-05-20T10:56:52;21.65;13.83
75838;SHT30;64480;52.040;113.502;2023-05-20T10:59:56;21.52;13.89
75838;SHT30;64480;52.040;113.502;2023-05-20T11:03:02;21.44;14.40
75838;SHT30;64480;52.040;113.502;2023-05-20T11:06:11;21.35;14.33
75838;SHT30;64480;52.040;113.502;2023-05-20T11:09:17;21.30;14.50
75838;SHT30;64480;52.040;113.502;2023-05-20T11:12:22;21.21;14.42
75838;SHT30;64480;52.040;113.502;2023-05-20T11:15:26;21.08;14.99
75838;SHT30;64480;52.040;113.502;2023-05-20T11:18:32;20.99;15.15
75838;SHT30;64480;52.040;113.502;2023-05-20T11:21:42;20.93;15.39
75838;SHT30;64480;52.040;113.502;2023-05-20T11:24:46;20.89;15.41
75838;SHT30;64480;52.040;113.502;2023-05-20T11:27:50;20.84;15.73
75838;SHT30;64480;52.040;113.502;2023-05-20T11:30:54;20.79;16.05
75838;SHT30;64480;52.040;113.502;2023-05-20T11:34:01;20.76;15.97
75838;SHT30;64480;52.040;113.502;2023-05-20T11:37:07;20.66;16.67
75838;SHT30;64480;52.040;113.502;2023-05-20T11:40:11;20.61;16.71
75838;SHT30;64480;52.040;113.502;2023-05-20T11:43:16;20.51;16.69
75838;SHT30;64480;52.040;113.502;2023-05-20T11:46:20;20.42;16.90
75838;SHT30;64480;52.040;113.502;2023-05-20T11:49:23;20.39;17.21
75838;SHT30;64480;52.040;113.502;2023-05-20T11:52:28;20.32;17.34
75838;SHT30;64480;52.040;113.502;2023-05-20T11:55:32;20.21;18.24
75838;SHT30;64480;52.040;113.502;2023-05-20T11:58:36;19.94;19.98
75838;SHT30;64480;52.040;113.502;2023-05-20T12:01:39;19.72;21.14
75838;SHT30;64480;52.040;113.502;2023-05-20T12:04:43;19.46;21.85
75838;SHT30;64480;52.040;113.502;2023-05-20T12:07:47;19.25;22.32
75838;SHT30;64480;52.040;113.502;2023-05-20T12:10:51;19.06;22.63
75838;SHT30;64480;52.040;113.502;2023-05-20T12:13:55;18.93;23.01
75838;SHT30;64480;52.040;113.502;2023-05-20T12:16:58;18.80;23.27
75838;SHT30;64480;52.040;113.502;2023-05-20T12:20:05;18.66;23.50
75838;SHT30;64480;52.040;113.502;2023-05-20T12:23:09;18.56;23.72
75838;SHT30;64480;52.040;113.502;2023-05-20T12:26:16;18.49;24.05
75838;SHT30;64480;52.040;113.502;2023-05-20T12:29:20;18.41;24.14
75838;SHT30;64480;52.040;113.502;2023-05-20T12:32:23;18.31;24.18
75838;SHT30;64480;52.040;113.502;2023-05-20T12:35:48;18.28;24.32
75838;SHT30;64480;52.040;113.502;2023-05-20T12:38:51;18.22;24.52
75838;SHT30;64480;52.040;113.502;2023-05-20T12:41:55;18.18;24.56
75838;SHT30;64480;52.040;113.502;2023-05-20T12:44:58;18.14;24.60
75838;SHT30;64480;52.040;113.502;2023-05-20T12:48:03;18.07;24.81
75838;SHT30;64480;52.040;113.502;2023-05-20T12:51:08;18.00;24.79
75838;SHT30;64480;52.040;113.502;2023-05-20T12:54:11;17.97;24.95
75838;SHT30;64480;52.040;113.502;2023-05-20T12:57:15;17.93;25.09
75838;SHT30;64480;52.040;113.502;2023-05-20T13:00:20;17.94;25.16
75838;SHT30;64480;52.040;113.502;2023-05-20T13:03:23;17.93;25.33
75838;SHT30;64480;52.040;113.502;2023-05-20T13:06:27;17.90;25.33
75838;SHT30;64480;52.040;113.502;2023-05-20T13:09:31;17.86;25.43
75838;SHT30;64480;52.040;113.502;2023-05-20T13:12:35;17.80;25.55
75838;SHT30;64480;52.040;113.502;2023-05-20T13:15:39;17.76;25.84
75838;SHT30;64480;52.040;113.502;2023-05-20T13:18:43;17.72;25.92
75838;SHT30;64480;52.040;113.502;2023-05-20T13:21:48;17.63;26.33
75838;SHT30;64480;52.040;113.502;2023-05-20T13:24:51;17.59;26.67
75838;SHT30;64480;52.040;113.502;2023-05-20T13:27:55;17.56;27.08
75838;SHT30;64480;52.040;113.502;2023-05-20T13:31:00;17.53;27.40
75838;SHT30;64480;52.040;113.502;2023-05-20T13:34:04;17.48;27.82
75838;SHT30;64480;52.040;113.502;2023-05-20T13:37:08;17.42;28.14
75838;SHT30;64480;52.040;113.502;2023-05-20T13:40:12;17.39;28.34
75838;SHT30;64480;52.040;113.502;2023-05-20T13:43:15;17.35;28.64
75838;SHT30;64480;52.040;113.502;2023-05-20T13:46:19;17.34;28.68
75838;SHT30;64480;52.040;113.502;2023-05-20T13:49:23;17.32;28.84
75838;SHT30;64480;52.040;113.502;2023-05-20T13:52:27;17.29;28.97
75838;SHT30;64480;52.040;113.502;2023-05-20T13:55:33;17.25;28.99
75838;SHT30;64480;52.040;113.502;2023-05-20T13:58:37;17.19;29.12
75838;SHT30;64480;52.040;113.502;2023-05-20T14:01:40;17.18;29.28
75838;SHT30;64480;52.040;113.502;2023-05-20T14:04:47;17.12;29.41
75838;SHT30;64480;52.040;113.502;2023-05-20T14:07:51;17.11;29.60
75838;SHT30;64480;52.040;113.502;2023-05-20T14:10:54;17.08;29.55
75838;SHT30;64480;52.040;113.502;2023-05-20T14:13:58;17.08;29.85
75838;SHT30;64480;52.040;113.502;2023-05-20T14:17:01;17.06;29.66
75838;SHT30;64480;52.040;113.502;2023-05-20T14:20:06;17.04;29.69
75838;SHT30;64480;52.040;113.502;2023-05-20T14:23:11;17.10;29.76
75838;SHT30;64480;52.040;113.502;2023-05-20T14:26:14;17.08;29.78
75838;SHT30;64480;52.040;113.502;2023-05-20T14:29:18;17.10;30.16
75838;SHT30;64480;52.040;113.502;2023-05-20T14:32:22;17.08;29.75
75838;SHT30;64480;52.040;113.502;2023-05-20T14:35:25;17.00;30.17
75838;SHT30;64480;52.040;113.502;2023-05-20T14:38:29;16.93;30.06
75838;SHT30;64480;52.040;113.502;2023-05-20T14:41:32;16.88;30.25
75838;SHT30;64480;52.040;113.502;2023-05-20T14:44:36;16.85;30.22
75838;SHT30;64480;52.040;113.502;2023-05-20T14:47:40;16.87;30.26
75838;SHT30;64480;52.040;113.502;2023-05-20T14:50:43;16.81;30.48
75838;SHT30;64480;52.040;113.502;2023-05-20T14:53:50;16.84;30.32
75838;SHT30;64480;52.040;113.502;2023-05-20T14:56:53;16.85;30.81
75838;SHT30;64480;52.040;113.502;2023-05-20T14:59:57;16.85;30.52
75838;SHT30;64480;52.040;113.502;2023-05-20T15:03:00;16.84;30.23
75838;SHT30;64480;52.040;113.502;2023-05-20T15:06:04;16.81;30.60
75838;SHT30;64480;52.040;113.502;2023-05-20T15:09:08;16.84;30.55
75838;SHT30;64480;52.040;113.502;2023-05-20T15:12:12;16.80;30.44
75838;SHT30;64480;52.040;113.502;2023-05-20T15:15:15;16.77;30.48
75838;SHT30;64480;52.040;113.502;2023-05-20T15:18:19;16.73;30.78
75838;SHT30;64480;52.040;113.502;2023-05-20T15:21:22;16.70;30.94
75838;SHT30;64480;52.040;113.502;2023-05-20T15:24:26;16.62;31.21
75838;SHT30;64480;52.040;113.502;2023-05-20T15:27:30;16.59;31.58
75838;SHT30;64480;52.040;113.502;2023-05-20T15:30:34;16.51;31.38
75838;SHT30;64480;52.040;113.502;2023-05-20T15:33:38;16.49;31.07
75838;SHT30;64480;52.040;113.502;2023-05-20T15:36:42;16.42;30.89
75838;SHT30;64480;52.040;113.502;2023-05-20T15:39:45;16.39;31.71
75838;SHT30;64480;52.040;113.502;2023-05-20T15:42:49;16.36;31.09
75838;SHT30;64480;52.040;113.502;2023-05-20T15:45:53;16.33;31.14
75838;SHT30;64480;52.040;113.502;2023-05-20T15:48:57;16.33;31.36
75838;SHT30;64480;52.040;113.502;2023-05-20T15:52:01;16.26;31.28
75838;SHT30;64480;52.040;113.502;2023-05-20T15:55:06;16.18;31.48
75838;SHT30;64480;52.040;113.502;2023-05-20T15:58:10;16.04;31.26
75838;SHT30;64480;52.040;113.502;2023-05-20T16:01:13;15.89;32.34
75838;SHT30;64480;52.040;113.502;2023-05-20T16:04:18;15.71;32.72
75838;SHT30;64480;52.040;113.502;2023-05-20T16:07:22;15.56;33.21
75838;SHT30;64480;52.040;113.502;2023-05-20T16:10:25;15.43;33.42
75838;SHT30;64480;52.040;113.502;2023-05-20T16:13:34;15.28;33.79
75838;SHT30;64480;52.040;113.502;2023-05-20T16:16:38;15.15;34.52
75838;SHT30;64480;52.040;113.502;2023-05-20T16:19:42;15.04;34.20
75838;SHT30;64480;52.040;113.502;2023-05-20T16:22:45;14.95;34.37
75838;SHT30;64480;52.040;113.502;2023-05-20T16:25:49;14.87;35.10
75838;SHT30;64480;52.040;113.502;2023-05-20T16:28:53;14.80;35.74
75838;SHT30;64480;52.040;113.502;2023-05-20T16:31:56;14.66;35.88
75838;SHT30;64480;52.040;113.502;2023-05-20T16:35:00;14.57;35.90
75838;SHT30;64480;52.040;113.502;2023-05-20T16:38:04;14.50;36.05
75838;SHT30;64480;52.040;113.502;2023-05-20T16:41:08;14.45;36.79
75838;SHT30;64480;52.040;113.502;2023-05-20T16:44:11;14.33;37.45
75838;SHT30;64480;52.040;113.502;2023-05-20T16:47:15;14.25;36.23
75838;SHT30;64480;52.040;113.502;2023-05-20T16:50:19;14.21;36.35
75838;SHT30;64480;52.040;113.502;2023-05-20T16:53:23;14.17;36.66
75838;SHT30;64480;52.040;113.502;2023-05-20T16:56:27;14.11;36.83
75838;SHT30;64480;52.040;113.502;2023-05-20T16:59:31;14.10;36.70
75838;SHT30;64480;52.040;113.502;2023-05-20T17:02:36;14.02;37.59
75838;SHT30;64480;52.040;113.502;2023-05-20T17:05:40;13.93;37.23
75838;SHT30;64480;52.040;113.502;2023-05-20T17:08:45;13.88;38.01
75838;SHT30;64480;52.040;113.502;2023-05-20T17:11:49;13.80;37.56
75838;SHT30;64480;52.040;113.502;2023-05-20T17:14:53;13.70;38.25
75838;SHT30;64480;52.040;113.502;2023-05-20T17:17:57;13.67;37.36
75838;SHT30;64480;52.040;113.502;2023-05-20T17:21:01;13.63;37.30
75838;SHT30;64480;52.040;113.502;2023-05-20T17:24:04;13.56;37.28
75838;SHT30;64480;52.040;113.502;2023-05-20T17:27:08;13.52;37.69
75838;SHT30;64480;52.040;113.502;2023-05-20T17:30:12;13.45;37.68
75838;SHT30;64480;52.040;113.502;2023-05-20T17:33:15;13.34;37.92
75838;SHT30;64480;52.040;113.502;2023-05-20T17:36:19;13.22;38.35
75838;SHT30;64480;52.040;113.502;2023-05-20T17:39:25;13.15;38.31
75838;SHT30;64480;52.040;113.502;2023-05-20T17:42:29;13.14;37.78
75838;SHT30;64480;52.040;113.502;2023-05-20T17:45:32;13.12;37.88
75838;SHT30;64480;52.040;113.502;2023-05-20T17:48:36;13.07;38.25
75838;SHT30;64480;52.040;113.502;2023-05-20T17:51:39;13.04;37.62
75838;SHT30;64480;52.040;113.502;2023-05-20T17:54:44;13.07;37.40
75838;SHT30;64480;52.040;113.502;2023-05-20T17:57:47;13.07;36.95
75838;SHT30;64480;52.040;113.502;2023-05-20T18:00:51;13.02;36.93
75838;SHT30;64480;52.040;113.502;2023-05-20T18:03:55;12.98;36.95
75838;SHT30;64480;52.040;113.502;2023-05-20T18:07:00;12.95;37.06
75838;SHT30;64480;52.040;113.502;2023-05-20T18:10:06;12.90;37.38
75838;SHT30;64480;52.040;113.502;2023-05-20T18:13:09;12.84;37.35
75838;SHT30;64480;52.040;113.502;2023-05-20T18:16:13;12.76;37.51
75838;SHT30;64480;52.040;113.502;2023-05-20T18:19:17;12.68;37.89
75838;SHT30;64480;52.040;113.502;2023-05-20T18:22:21;12.59;38.27
75838;SHT30;64480;52.040;113.502;2023-05-20T18:25:25;12.47;38.02
75838;SHT30;64480;52.040;113.502;2023-05-20T18:28:28;12.39;38.34
75838;SHT30;64480;52.040;113.502;2023-05-20T18:31:32;12.26;38.71
75838;SHT30;64480;52.040;113.502;2023-05-20T18:34:35;12.21;38.92
75838;SHT30;64480;52.040;113.502;2023-05-20T18:37:39;12.11;39.31
75838;SHT30;64480;52.040;113.502;2023-05-20T18:40:42;12.05;39.73
75838;SHT30;64480;52.040;113.502;2023-05-20T18:43:46;11.95;40.26
75838;SHT30;64480;52.040;113.502;2023-05-20T18:46:50;11.91;40.11
75838;SHT30;64480;52.040;113.502;2023-05-20T18:49:53;11.84;41.07
75838;SHT30;64480;52.040;113.502;2023-05-20T18:52:58;11.74;41.06
75838;SHT30;64480;52.040;113.502;2023-05-20T18:56:01;11.67;40.71
75838;SHT30;64480;52.040;113.502;2023-05-20T18:59:05;11.59;40.76
75838;SHT30;64480;52.040;113.502;2023-05-20T19:02:08;11.56;40.82
75838;SHT30;64480;52.040;113.502;2023-05-20T19:05:12;11.52;40.67
75838;SHT30;64480;52.040;113.502;2023-05-20T19:08:16;11.43;41.21
75838;SHT30;64480;52.040;113.502;2023-05-20T19:11:19;11.39;41.15